New River Marine Corps Air S, North Carolina
Current Conditions -  °F | °C
As of 10:05 AM on Monday 22 Dec 2014 (Local Time) from KNCA Reporting Station
Light Rain Light Rain  
Wind Chill: 40°   Ceiling: 600
Heat Index: 45°   Visibility: 6mi
Dew Point: 43°   Wind: 10mph
Humidity: 93%   Direction: 350°N
Pressure: 30.09"   Gusts: NA
Location:  34.6773°N, 77.5232°W
Report Text: KNCA 221505Z 35009KT 6SM -RA BR OVC006 07/06 A3009 RMK AO2 P0001 T00720061
Loading
Personal Weather Stations






























Interactive Weather Map New forecast layout! Learn more

10-Day Weather Forecast

Advertisements
Track Severe Weather on mobile